createdAt,value
2018-08-06T00:00:02.677Z,0.00
2018-08-06T00:01:02.663Z,0.00
2018-08-06T00:02:02.667Z,0.00
2018-08-06T00:03:02.694Z,0.00
2018-08-06T00:04:02.668Z,0.00
2018-08-06T00:05:02.669Z,0.00
2018-08-06T00:06:02.670Z,0.00
2018-08-06T00:07:02.593Z,0.00
2018-08-06T00:08:02.594Z,0.00
2018-08-06T00:09:02.593Z,0.00
2018-08-06T00:10:02.559Z,0.00
2018-08-06T00:11:02.553Z,0.00
2018-08-06T00:12:02.548Z,0.00
2018-08-06T00:13:02.548Z,0.00
2018-08-06T00:14:02.595Z,0.00
2018-08-06T00:15:02.554Z,0.00
2018-08-06T00:16:02.556Z,0.00
2018-08-06T00:17:02.486Z,0.00
2018-08-06T00:18:02.473Z,0.00
2018-08-06T00:19:02.480Z,0.00
2018-08-06T00:20:02.452Z,0.00
2018-08-06T00:21:02.442Z,0.00
2018-08-06T00:22:02.435Z,0.00
2018-08-06T00:23:02.436Z,0.00
2018-08-06T00:24:02.473Z,0.00
2018-08-06T00:25:02.435Z,0.00
2018-08-06T00:26:02.439Z,0.00
2018-08-06T00:27:02.380Z,0.00
2018-08-06T00:28:02.363Z,0.00
2018-08-06T00:29:02.438Z,0.00
2018-08-06T00:30:02.348Z,0.00
2018-08-06T00:31:02.345Z,0.00
2018-08-06T00:32:02.319Z,0.00
2018-08-06T00:33:02.323Z,0.00
2018-08-06T00:34:02.322Z,0.00
2018-08-06T00:35:02.356Z,0.00
2018-08-06T00:36:02.326Z,0.00
2018-08-06T00:37:02.322Z,0.00
2018-08-06T00:38:02.261Z,0.00
2018-08-06T00:39:02.248Z,0.00
2018-08-06T00:40:02.229Z,0.00
2018-08-06T00:41:02.236Z,0.00
2018-08-06T00:42:02.213Z,0.00
2018-08-06T00:43:02.210Z,0.00
2018-08-06T00:44:02.210Z,0.00
2018-08-06T00:45:02.240Z,0.00
2018-08-06T00:46:02.241Z,0.00
2018-08-06T00:47:02.213Z,0.00
2018-08-06T00:48:02.219Z,0.00
2018-08-06T00:49:02.138Z,0.00
2018-08-06T00:50:02.120Z,0.00
2018-08-06T00:51:02.114Z,0.00
2018-08-06T00:52:02.128Z,0.00
2018-08-06T00:53:02.090Z,0.00
2018-08-06T00:54:02.093Z,0.00
2018-08-06T00:55:02.093Z,0.00
2018-08-06T00:56:02.148Z,0.00
2018-08-06T00:57:02.095Z,0.00
2018-08-06T00:58:02.113Z,0.00
2018-08-06T00:59:02.028Z,0.00
2018-08-06T01:00:02.010Z,0.00
2018-08-06T01:01:02.109Z,0.00
2018-08-06T01:02:02.033Z,0.00
2018-08-06T01:03:01.979Z,0.00
2018-08-06T01:04:01.987Z,0.00
2018-08-06T01:05:01.985Z,0.00
2018-08-06T01:06:01.985Z,0.00
2018-08-06T01:07:02.011Z,0.00
2018-08-06T01:08:01.979Z,0.00
2018-08-06T01:09:01.917Z,0.00
2018-08-06T01:10:01.907Z,0.00
2018-08-06T01:11:01.899Z,0.00
2018-08-06T01:12:01.880Z,0.00
2018-08-06T01:13:01.897Z,0.00
2018-08-06T01:14:01.876Z,0.00
2018-08-06T01:15:01.867Z,0.00
2018-08-06T01:16:01.865Z,0.00
2018-08-06T01:17:01.864Z,0.00
2018-08-06T01:18:01.866Z,0.00
2018-08-06T01:19:01.866Z,0.00
2018-08-06T01:20:01.796Z,0.00
2018-08-06T01:21:01.876Z,0.00
2018-08-06T01:22:01.767Z,0.00
2018-08-06T01:23:01.763Z,0.00
2018-08-06T01:24:01.747Z,0.00
2018-08-06T01:25:01.753Z,0.00
2018-08-06T01:26:01.748Z,0.00
2018-08-06T01:27:01.786Z,0.00
2018-08-06T01:28:01.787Z,0.00
2018-08-06T01:29:01.753Z,0.00
2018-08-06T01:30:01.683Z,0.00
2018-08-06T01:31:01.693Z,0.00
2018-08-06T01:32:01.684Z,0.00
2018-08-06T01:33:01.681Z,0.00
2018-08-06T01:34:01.639Z,0.00
2018-08-06T01:35:01.696Z,0.00
2018-08-06T01:36:01.639Z,0.00
2018-08-06T01:37:01.634Z,0.00
2018-08-06T01:38:01.647Z,0.00
2018-08-06T01:39:01.636Z,0.00
2018-08-06T01:40:01.637Z,0.00
2018-08-06T01:41:01.638Z,0.00
2018-08-06T01:42:01.548Z,0.00
2018-08-06T01:43:01.552Z,0.00
2018-08-06T01:44:01.557Z,0.00
2018-08-06T01:45:01.521Z,0.00
2018-08-06T01:46:01.552Z,0.00
2018-08-06T01:47:01.527Z,0.00
2018-08-06T01:48:01.528Z,0.00
2018-08-06T01:49:01.523Z,0.00
2018-08-06T01:50:01.522Z,0.00
2018-08-06T01:51:01.533Z,0.00
2018-08-06T01:52:01.461Z,0.00
2018-08-06T01:53:01.432Z,0.00
2018-08-06T01:54:01.420Z,0.00
2018-08-06T01:55:01.411Z,0.00
2018-08-06T01:56:01.926Z,0.00
2018-08-06T01:57:01.427Z,0.00
2018-08-06T01:58:01.407Z,0.00
2018-08-06T01:59:01.421Z,0.00
2018-08-06T02:00:01.408Z,0.00
2018-08-06T02:01:01.408Z,0.00
2018-08-06T02:02:01.332Z,0.00
2018-08-06T02:03:01.321Z,0.00
2018-08-06T02:04:01.352Z,0.00
2018-08-06T02:05:01.303Z,0.00
2018-08-06T02:06:01.331Z,0.00
2018-08-06T02:07:01.295Z,0.00
2018-08-06T02:08:01.300Z,0.00
2018-08-06T02:09:01.299Z,0.00
2018-08-06T02:10:01.296Z,0.00
2018-08-06T02:11:01.293Z,0.00
2018-08-06T02:12:01.302Z,0.00
2018-08-06T02:13:01.215Z,0.00
2018-08-06T02:14:01.228Z,0.00
2018-08-06T02:15:01.197Z,0.00
2018-08-06T02:16:01.178Z,0.00
2018-08-06T02:17:01.205Z,0.00
2018-08-06T02:18:01.178Z,0.00
2018-08-06T02:19:01.184Z,0.00
2018-08-06T02:20:01.179Z,0.00
2018-08-06T02:21:01.214Z,0.00
2018-08-06T02:22:01.117Z,0.00
2018-08-06T02:23:01.182Z,0.00
2018-08-06T02:24:01.101Z,0.00
2018-08-06T02:25:01.081Z,0.00
2018-08-06T02:26:01.073Z,0.00
2018-08-06T02:27:01.087Z,0.00
2018-08-06T02:28:01.107Z,0.00
2018-08-06T02:29:01.068Z,0.00
2018-08-06T02:30:01.066Z,0.00
2018-08-06T02:31:01.064Z,0.00
2018-08-06T02:32:01.064Z,0.00
2018-08-06T02:33:00.998Z,0.00
2018-08-06T02:34:00.997Z,0.00
2018-08-06T02:35:00.972Z,0.00
2018-08-06T02:36:00.968Z,0.00
2018-08-06T02:37:00.952Z,0.00
2018-08-06T02:38:00.981Z,0.00
2018-08-06T02:39:01.020Z,0.00
2018-08-06T02:40:00.948Z,0.00
2018-08-06T02:41:00.952Z,0.00
2018-08-06T02:42:00.953Z,0.00
2018-08-06T02:43:00.883Z,0.00
2018-08-06T02:44:00.958Z,0.00
2018-08-06T02:45:00.871Z,0.00
2018-08-06T02:46:00.864Z,0.00
2018-08-06T02:47:00.845Z,0.00
2018-08-06T02:48:00.837Z,0.00
2018-08-06T02:49:00.833Z,0.00
2018-08-06T02:50:00.874Z,0.00
2018-08-06T02:51:00.847Z,0.00
2018-08-06T02:52:00.837Z,0.00
2018-08-06T02:53:00.836Z,0.00
2018-08-06T02:54:00.767Z,0.00
2018-08-06T02:55:00.752Z,0.00
2018-08-06T02:56:00.766Z,0.00
2018-08-06T02:57:00.729Z,0.00
2018-08-06T02:58:00.727Z,0.00
2018-08-06T02:59:00.719Z,0.00
2018-08-06T03:00:00.811Z,0.00
2018-08-06T03:01:00.720Z,0.00
2018-08-06T03:02:00.720Z,0.00
2018-08-06T03:03:00.742Z,0.00
2018-08-06T03:04:00.660Z,0.00
2018-08-06T03:05:00.722Z,0.00
2018-08-06T03:06:00.642Z,0.00
2018-08-06T03:07:00.627Z,0.00
2018-08-06T03:08:00.617Z,0.00
2018-08-06T03:09:00.611Z,0.00
2018-08-06T03:10:00.646Z,0.00
2018-08-06T03:11:00.648Z,0.00
2018-08-06T03:12:00.611Z,0.00
2018-08-06T03:13:00.609Z,0.00
2018-08-06T03:14:00.544Z,0.00
2018-08-06T03:15:00.530Z,0.00
2018-08-06T03:16:00.617Z,0.00
2018-08-06T03:17:00.551Z,0.00
2018-08-06T03:18:00.499Z,0.00
2018-08-06T03:19:00.492Z,0.00
2018-08-06T03:20:00.537Z,0.00
2018-08-06T03:21:00.493Z,0.00
2018-08-06T03:22:00.496Z,0.00
2018-08-06T03:23:00.503Z,0.00
2018-08-06T03:24:00.528Z,0.00
2018-08-06T03:25:00.442Z,0.00
2018-08-06T03:26:00.415Z,0.00
2018-08-06T03:27:00.409Z,0.00
2018-08-06T03:28:00.407Z,0.00
2018-08-06T03:29:00.380Z,0.00
2018-08-06T03:30:00.411Z,0.00
2018-08-06T03:31:00.377Z,0.00
2018-08-06T03:32:00.385Z,0.00
2018-08-06T03:33:00.380Z,0.00
2018-08-06T03:34:00.378Z,0.00
2018-08-06T03:35:00.378Z,0.00
2018-08-06T03:36:00.312Z,0.00
2018-08-06T03:37:00.292Z,4.00
2018-08-06T03:38:00.290Z,4.00
2018-08-06T03:39:00.270Z,4.00
2018-08-06T03:40:00.304Z,0.00
2018-08-06T03:41:00.266Z,0.00
2018-08-06T03:42:00.270Z,4.00
2018-08-06T03:43:00.265Z,4.00
2018-08-06T03:44:00.271Z,0.00
2018-08-06T03:45:00.263Z,4.00
2018-08-06T03:46:00.264Z,4.00
2018-08-06T03:47:00.188Z,4.00
2018-08-06T03:48:00.182Z,4.00
2018-08-06T03:49:00.165Z,4.00
2018-08-06T03:50:00.157Z,8.00
2018-08-06T03:51:00.186Z,4.00
2018-08-06T03:52:00.155Z,8.00
2018-08-06T03:53:00.148Z,4.00
2018-08-06T03:54:00.149Z,8.00
2018-08-06T03:55:00.152Z,12.00
2018-08-06T03:56:00.150Z,8.00
2018-08-06T03:57:00.152Z,12.00
2018-08-06T03:58:00.063Z,12.00
2018-08-06T03:59:00.057Z,12.00
2018-08-06T04:00:00.050Z,12.00
2018-08-06T04:01:00.066Z,12.00
2018-08-06T04:02:00.069Z,16.00
2018-08-06T04:03:00.038Z,16.00
2018-08-06T04:04:00.036Z,20.00
2018-08-06T04:05:00.041Z,20.00
2018-08-06T04:05:59.976Z,24.00
2018-08-06T04:06:59.963Z,20.00
2018-08-06T04:07:59.975Z,20.00
2018-08-06T04:08:59.936Z,24.00
2018-08-06T04:09:59.934Z,24.00
2018-08-06T04:10:59.964Z,28.00
2018-08-06T04:11:59.967Z,28.00
2018-08-06T04:12:59.962Z,32.00
2018-08-06T04:13:59.921Z,32.00
2018-08-06T04:14:59.934Z,32.00
2018-08-06T04:15:59.923Z,36.00
2018-08-06T04:16:59.870Z,36.00
2018-08-06T04:17:59.859Z,40.00
2018-08-06T04:18:59.826Z,40.00
2018-08-06T04:19:59.824Z,44.00
2018-08-06T04:20:59.804Z,40.00
2018-08-06T04:21:59.807Z,44.00
2018-08-06T04:22:59.871Z,48.00
2018-08-06T04:23:59.847Z,52.00
2018-08-06T04:24:59.806Z,52.00
2018-08-06T04:25:59.807Z,52.00
2018-08-06T04:26:59.807Z,52.00
2018-08-06T04:27:59.735Z,56.00
2018-08-06T04:28:59.717Z,60.00
2018-08-06T04:29:59.740Z,60.00
2018-08-06T04:30:59.713Z,64.00
2018-08-06T04:31:59.692Z,64.00
2018-08-06T04:32:59.812Z,68.00
2018-08-06T04:33:59.693Z,68.00
2018-08-06T04:34:59.725Z,76.00
2018-08-06T04:35:59.695Z,76.00
2018-08-06T04:36:59.699Z,80.00
2018-08-06T04:37:59.630Z,84.00
2018-08-06T04:38:59.612Z,84.00
2018-08-06T04:39:59.618Z,88.00
2018-08-06T04:40:59.594Z,88.00
2018-08-06T04:41:59.590Z,92.00
2018-08-06T04:42:59.587Z,92.00
2018-08-06T04:43:59.583Z,100.00
2018-08-06T04:44:59.610Z,100.00
2018-08-06T04:45:59.641Z,104.00
2018-08-06T04:46:59.624Z,104.00
2018-08-06T04:47:59.516Z,100.00
2018-08-06T04:48:59.508Z,92.00
2018-08-06T04:49:59.490Z,80.00
2018-08-06T04:50:59.517Z,92.00
2018-08-06T04:51:59.475Z,112.00
2018-08-06T04:52:59.462Z,120.00
2018-08-06T04:53:59.474Z,124.00
2018-08-06T04:54:59.462Z,104.00
2018-08-06T04:55:59.463Z,100.00
2018-08-06T04:56:59.497Z,88.00
2018-08-06T04:57:59.464Z,84.00
2018-08-06T04:58:59.469Z,100.00
2018-08-06T04:59:59.379Z,136.00
2018-08-06T05:00:59.372Z,144.00
2018-08-06T05:01:59.359Z,152.00
2018-08-06T05:02:59.380Z,152.00
2018-08-06T05:03:59.362Z,152.00
2018-08-06T05:04:59.351Z,156.00
2018-08-06T05:05:59.350Z,160.00
2018-08-06T05:06:59.397Z,164.00
2018-08-06T05:07:59.351Z,168.00
2018-08-06T05:08:59.354Z,164.00
2018-08-06T05:09:59.272Z,168.00
2018-08-06T05:10:59.284Z,172.00
2018-08-06T05:11:59.251Z,172.00
2018-08-06T05:12:59.236Z,176.00
2018-08-06T05:13:59.236Z,176.00
2018-08-06T05:14:59.237Z,180.00
2018-08-06T05:15:59.242Z,184.00
2018-08-06T05:16:59.265Z,180.00
2018-08-06T05:17:59.237Z,164.00
2018-08-06T05:18:59.254Z,144.00
2018-08-06T05:19:59.162Z,152.00
2018-08-06T05:20:59.152Z,160.00
2018-08-06T05:21:59.145Z,156.00
2018-08-06T05:22:59.172Z,152.00
2018-08-06T05:23:59.130Z,148.00
2018-08-06T05:24:59.118Z,152.00
2018-08-06T05:25:59.120Z,172.00
2018-08-06T05:26:59.122Z,188.00
2018-08-06T05:27:59.120Z,212.00
2018-08-06T05:28:59.125Z,220.00
2018-08-06T05:29:59.064Z,224.00
2018-08-06T05:30:59.048Z,220.00
2018-08-06T05:31:59.034Z,228.00
2018-08-06T05:32:59.029Z,228.00
2018-08-06T05:33:59.053Z,236.00
2018-08-06T05:34:59.005Z,236.00
2018-08-06T05:35:59.006Z,240.00
2018-08-06T05:36:59.006Z,240.00
2018-08-06T05:37:59.006Z,244.00
2018-08-06T05:38:59.055Z,252.00
2018-08-06T05:39:59.009Z,252.00
2018-08-06T05:40:58.935Z,256.00
2018-08-06T05:41:58.942Z,256.00
2018-08-06T05:42:58.907Z,260.00
2018-08-06T05:43:58.903Z,264.00
2018-08-06T05:44:58.921Z,268.00
2018-08-06T05:45:58.889Z,264.00
2018-08-06T05:46:58.891Z,272.00
2018-08-06T05:47:58.893Z,272.00
2018-08-06T05:48:58.893Z,280.00
2018-08-06T05:49:58.927Z,280.00
2018-08-06T05:50:58.822Z,284.00
2018-08-06T05:51:58.809Z,284.00
2018-08-06T05:52:58.813Z,288.00
2018-08-06T05:53:58.790Z,292.00
2018-08-06T05:54:58.782Z,292.00
2018-08-06T05:55:58.812Z,296.00
2018-08-06T05:56:58.778Z,300.00
2018-08-06T05:58:05.775Z,300.00
2018-08-06T05:58:58.782Z,304.00
2018-08-06T05:59:58.777Z,308.00
2018-08-06T06:00:58.711Z,312.00
2018-08-06T06:01:58.718Z,312.00
2018-08-06T06:02:58.722Z,316.00
2018-08-06T06:03:58.679Z,316.00
2018-08-06T06:04:58.668Z,320.00
2018-08-06T06:05:58.660Z,320.00
2018-08-06T06:06:58.699Z,324.00
2018-08-06T06:07:58.662Z,324.00
2018-08-06T06:08:58.664Z,324.00
2018-08-06T06:09:58.666Z,328.00
2018-08-06T06:10:58.666Z,332.00
2018-08-06T06:11:58.595Z,336.00
2018-08-06T06:12:58.590Z,336.00
2018-08-06T06:13:58.575Z,340.00
2018-08-06T06:14:58.567Z,340.00
2018-08-06T06:15:58.565Z,340.00
2018-08-06T06:16:58.580Z,344.00
2018-08-06T06:17:58.585Z,348.00
2018-08-06T06:18:58.550Z,348.00
2018-08-06T06:19:58.551Z,352.00
2018-08-06T06:20:58.563Z,352.00
2018-08-06T06:21:58.488Z,356.00
2018-08-06T06:22:58.553Z,356.00
2018-08-06T06:23:58.468Z,360.00
2018-08-06T06:24:58.456Z,360.00
2018-08-06T06:25:58.445Z,364.00
2018-08-06T06:26:58.436Z,364.00
2018-08-06T06:27:58.435Z,368.00
2018-08-06T06:28:58.466Z,368.00
2018-08-06T06:29:58.438Z,372.00
2018-08-06T06:30:58.437Z,372.00
2018-08-06T06:31:58.441Z,376.00
2018-08-06T06:32:58.368Z,376.00
2018-08-06T06:33:58.352Z,380.00
2018-08-06T06:34:58.440Z,380.00
2018-08-06T06:35:58.329Z,380.00
2018-08-06T06:36:58.325Z,384.00
2018-08-06T06:37:58.319Z,388.00
2018-08-06T06:38:58.323Z,392.00
2018-08-06T06:39:58.322Z,392.00
2018-08-06T06:40:58.357Z,396.00
2018-08-06T06:41:58.323Z,396.00
2018-08-06T06:42:58.265Z,400.00
2018-08-06T06:43:58.323Z,408.00
2018-08-06T06:44:58.234Z,412.00
2018-08-06T06:45:58.224Z,420.00
2018-08-06T06:46:58.213Z,428.00
2018-08-06T06:47:58.211Z,476.00
2018-08-06T06:48:58.256Z,616.00
2018-08-06T06:49:58.238Z,708.00
2018-08-06T06:50:58.206Z,688.00
2018-08-06T06:51:58.209Z,636.00
2018-08-06T06:52:58.249Z,588.00
2018-08-06T06:53:58.135Z,564.00
2018-08-06T06:54:58.125Z,540.00
2018-08-06T06:55:58.113Z,492.00
2018-08-06T06:56:58.101Z,444.00
2018-08-06T06:57:58.152Z,436.00
2018-08-06T06:58:58.126Z,428.00
2018-08-06T06:59:58.105Z,428.00
2018-08-06T07:00:58.097Z,428.00
2018-08-06T07:01:58.091Z,428.00
2018-08-06T07:02:58.100Z,428.00
2018-08-06T07:03:58.095Z,440.00
2018-08-06T07:04:58.018Z,432.00
2018-08-06T07:05:58.008Z,432.00
2018-08-06T07:06:57.995Z,440.00
2018-08-06T07:07:57.993Z,468.00
2018-08-06T07:08:58.027Z,608.00
2018-08-06T07:09:57.976Z,664.00
2018-08-06T07:10:57.980Z,524.00
2018-08-06T07:11:57.991Z,488.00
2018-08-06T07:12:57.983Z,484.00
2018-08-06T07:13:58.026Z,476.00
2018-08-06T07:14:58.012Z,464.00
2018-08-06T07:15:57.902Z,452.00
2018-08-06T07:16:57.907Z,444.00
2018-08-06T07:17:57.896Z,444.00
2018-08-06T07:18:57.870Z,448.00
2018-08-06T07:19:57.861Z,448.00
2018-08-06T07:20:57.863Z,448.00
2018-08-06T07:21:57.864Z,452.00
2018-08-06T07:22:57.895Z,452.00
2018-08-06T07:23:57.863Z,452.00
2018-08-06T07:24:57.894Z,456.00
2018-08-06T07:25:57.834Z,456.00
2018-08-06T07:26:57.782Z,456.00
2018-08-06T07:27:57.768Z,456.00
2018-08-06T07:28:57.761Z,460.00
2018-08-06T07:29:57.753Z,460.00
2018-08-06T07:30:57.777Z,460.00
2018-08-06T07:31:57.748Z,460.00
2018-08-06T07:32:57.750Z,464.00
2018-08-06T07:33:57.755Z,464.00
2018-08-06T07:34:57.749Z,464.00
2018-08-06T07:35:57.756Z,468.00
2018-08-06T07:36:57.676Z,464.00
2018-08-06T07:37:57.665Z,468.00
2018-08-06T07:38:57.652Z,468.00
2018-08-06T07:39:57.659Z,468.00
2018-08-06T07:40:57.667Z,472.00
2018-08-06T07:41:57.633Z,472.00
2018-08-06T07:42:57.674Z,472.00
2018-08-06T07:43:57.651Z,472.00
2018-08-06T07:44:57.703Z,476.00
2018-08-06T07:45:57.635Z,476.00
2018-08-06T07:46:57.593Z,480.00
2018-08-06T07:47:57.571Z,476.00
2018-08-06T07:48:57.561Z,480.00
2018-08-06T07:49:57.615Z,480.00
2018-08-06T07:50:57.557Z,480.00
2018-08-06T07:51:57.556Z,480.00
2018-08-06T07:52:57.522Z,484.00
2018-08-06T07:53:57.527Z,484.00
2018-08-06T07:54:57.519Z,488.00
2018-08-06T07:55:57.521Z,488.00
2018-08-06T07:56:57.520Z,488.00
2018-08-06T07:57:57.523Z,488.00
2018-08-06T07:58:57.533Z,488.00
2018-08-06T07:59:57.432Z,488.00
2018-08-06T08:00:57.421Z,492.00
2018-08-06T08:01:57.408Z,492.00
2018-08-06T08:02:57.405Z,496.00
2018-08-06T08:03:57.442Z,496.00
2018-08-06T08:04:57.417Z,492.00
2018-08-06T08:05:57.414Z,496.00
2018-08-06T08:06:57.409Z,496.00
2018-08-06T08:07:57.415Z,500.00
2018-08-06T08:08:57.353Z,504.00
2018-08-06T08:09:57.349Z,504.00
2018-08-06T08:10:57.318Z,536.00
2018-08-06T08:11:57.357Z,608.00
2018-08-06T08:12:57.351Z,1020.00
2018-08-06T08:13:57.302Z,960.00
2018-08-06T08:14:57.344Z,808.00
2018-08-06T08:15:57.299Z,572.00
2018-08-06T08:16:57.295Z,556.00
2018-08-06T08:17:57.325Z,528.00
2018-08-06T08:18:57.240Z,524.00
2018-08-06T08:19:57.284Z,540.00
2018-08-06T08:20:57.228Z,688.00
2018-08-06T08:21:57.192Z,1428.00
2018-08-06T08:22:57.206Z,2164.00
2018-08-06T08:23:57.201Z,2156.00
2018-08-06T08:24:57.212Z,2128.00
2018-08-06T08:25:57.181Z,2736.00
2018-08-06T08:26:57.223Z,2640.00
2018-08-06T08:27:57.182Z,2856.00
2018-08-06T08:28:57.211Z,3024.00
2018-08-06T08:29:57.201Z,2864.00
2018-08-06T08:30:57.181Z,2724.00
2018-08-06T08:31:57.179Z,2340.00
2018-08-06T08:32:57.114Z,2160.00
2018-08-06T08:33:57.156Z,1772.00
2018-08-06T08:34:57.065Z,1888.00
2018-08-06T08:35:57.066Z,2544.00
2018-08-06T08:36:57.095Z,2692.00
2018-08-06T08:37:57.111Z,2688.00
2018-08-06T08:38:57.075Z,2656.00
2018-08-06T08:39:57.065Z,2060.00
2018-08-06T08:40:56.995Z,1448.00
2018-08-06T08:41:57.001Z,1284.00
2018-08-06T08:42:56.987Z,1344.00
2018-08-06T08:43:56.963Z,1468.00
2018-08-06T08:44:56.954Z,1484.00
2018-08-06T08:45:56.948Z,1588.00
2018-08-06T08:46:56.950Z,1928.00
2018-08-06T08:47:56.978Z,1832.00
2018-08-06T08:48:56.980Z,2516.00
2018-08-06T08:49:56.949Z,3344.00
2018-08-06T08:50:56.887Z,4036.00
2018-08-06T08:51:56.881Z,5240.00
2018-08-06T08:52:56.884Z,6392.00
2018-08-06T08:53:56.853Z,6740.00
2018-08-06T08:54:56.874Z,6848.00
2018-08-06T08:55:56.838Z,6900.00
2018-08-06T08:56:56.843Z,6916.00
2018-08-06T08:57:56.877Z,6848.00
2018-08-06T08:58:57.020Z,6812.00
2018-08-06T08:59:56.840Z,6768.00
2018-08-06T09:00:56.836Z,6696.00
2018-08-06T09:01:56.771Z,6508.00
2018-08-06T09:02:56.840Z,5736.00
2018-08-06T09:03:56.779Z,5124.00
2018-08-06T09:04:56.744Z,5060.00
2018-08-06T09:05:56.731Z,4232.00
2018-08-06T09:06:56.722Z,2984.00
2018-08-06T09:07:56.730Z,2160.00
2018-08-06T09:08:56.722Z,2256.00
2018-08-06T09:09:56.754Z,2272.00
2018-08-06T09:10:56.722Z,2284.00
2018-08-06T09:11:56.722Z,2208.00
2018-08-06T09:12:56.728Z,1840.00
2018-08-06T09:13:56.679Z,1396.00
2018-08-06T09:14:56.639Z,1228.00
2018-08-06T09:15:56.665Z,1140.00
2018-08-06T09:16:56.621Z,1036.00
2018-08-06T09:17:56.612Z,1108.00
2018-08-06T09:18:56.606Z,1348.00
2018-08-06T09:19:56.613Z,1628.00
2018-08-06T09:20:56.637Z,1216.00
2018-08-06T09:21:56.704Z,1076.00
2018-08-06T09:22:56.735Z,992.00
2018-08-06T09:23:56.627Z,928.00
